createdAt,value
2022-08-05T00:01:27.816Z,99108.88
2022-08-05T00:04:14.131Z,99102.59
2022-08-05T00:06:59.331Z,99113.00
2022-08-05T00:09:44.077Z,99102.09
2022-08-05T00:12:29.033Z,99101.84
2022-08-05T00:15:55.273Z,99108.38
2022-08-05T00:18:22.701Z,99110.97
2022-08-05T00:21:08.399Z,99107.06
2022-08-05T00:24:10.100Z,99107.59
2022-08-05T00:26:56.378Z,99097.22
2022-08-05T00:29:41.227Z,99089.66
2022-08-05T00:32:26.152Z,99100.06
2022-08-05T00:35:11.234Z,99100.34
2022-08-05T00:37:56.252Z,99102.19
2022-08-05T00:40:53.303Z,99097.75
2022-08-05T00:43:47.018Z,99098.31
2022-08-05T00:46:42.657Z,99105.06
2022-08-05T00:49:28.226Z,99100.13
2022-08-05T00:52:18.703Z,99095.97
2022-08-05T00:55:13.365Z,99094.41
2022-08-05T00:58:00.184Z,99091.84
2022-08-05T01:00:46.741Z,99094.72
2022-08-05T01:03:34.057Z,99096.81
2022-08-05T01:06:19.137Z,99095.28
2022-08-05T01:09:05.602Z,99100.50
2022-08-05T01:11:55.521Z,99100.50
2022-08-05T01:14:48.164Z,99095.84
2022-08-05T01:17:53.672Z,99110.41
2022-08-05T01:20:59.677Z,99107.03
2022-08-05T01:24:02.262Z,99113.53
2022-08-05T01:27:50.614Z,99116.66
2022-08-05T01:30:50.668Z,99113.31
2022-08-05T01:33:53.665Z,99104.50
2022-08-05T01:36:47.017Z,99107.91
2022-08-05T01:39:47.543Z,99109.53
2022-08-05T01:42:36.071Z,99106.63
2022-08-05T01:45:23.715Z,99108.44
2022-08-05T01:48:11.858Z,99113.13
2022-08-05T01:51:00.154Z,99111.31
2022-08-05T01:53:59.107Z,99116.78
2022-08-05T01:58:09.365Z,99108.69
2022-08-05T01:59:59.316Z,99112.09
2022-08-05T02:03:16.354Z,99117.56
2022-08-05T02:06:37.619Z,99110.56
2022-08-05T02:09:20.651Z,99109.56
2022-08-05T02:12:12.012Z,99100.19
2022-08-05T02:15:03.180Z,99107.75
2022-08-05T02:18:31.228Z,99112.97
2022-08-05T02:21:04.326Z,99114.25
2022-08-05T02:23:54.839Z,99112.97
2022-08-05T02:26:54.694Z,99109.56
2022-08-05T02:29:58.921Z,99110.13
2022-08-05T02:32:51.911Z,99104.69
2022-08-05T02:35:49.894Z,99107.56
2022-08-05T02:38:45.085Z,99114.84
2022-08-05T02:41:57.678Z,99115.38
2022-08-05T02:44:46.257Z,99112.03
2022-08-05T02:47:58.332Z,99108.38
2022-08-05T02:50:46.035Z,99116.72
2022-08-05T02:53:38.991Z,99113.34
2022-08-05T02:56:26.727Z,99114.88
2022-08-05T02:59:12.113Z,99110.47
2022-08-05T03:02:00.170Z,99111.25
2022-08-05T03:04:46.561Z,99105.50
2022-08-05T03:08:06.583Z,99119.78
2022-08-05T03:11:53.271Z,99129.34
2022-08-05T03:14:03.399Z,99123.25
2022-08-05T03:16:49.343Z,99123.91
2022-08-05T03:19:38.330Z,99114.88
2022-08-05T03:22:32.469Z,99118.19
2022-08-05T03:25:32.659Z,99122.16
2022-08-05T03:28:19.875Z,99120.69
2022-08-05T03:31:05.413Z,99123.63
2022-08-05T03:33:53.190Z,99119.00
2022-08-05T03:36:37.964Z,99119.81
2022-08-05T03:39:26.997Z,99108.31
2022-08-05T03:42:12.216Z,99105.22
2022-08-05T03:44:57.179Z,99113.03
2022-08-05T03:47:42.267Z,99107.56
2022-08-05T03:50:59.274Z,99111.56
2022-08-05T03:55:52.394Z,99111.72
2022-08-05T03:57:42.370Z,99108.56
2022-08-05T04:00:30.916Z,99104.88
2022-08-05T04:03:28.174Z,99096.56
2022-08-05T04:06:14.970Z,99096.25
2022-08-05T04:09:01.871Z,99088.91
2022-08-05T04:11:47.329Z,99089.94
2022-08-05T04:14:36.083Z,99093.78
2022-08-05T04:17:21.473Z,99098.09
2022-08-05T04:20:06.662Z,99100.25
2022-08-05T04:22:56.070Z,99109.97
2022-08-05T04:25:58.000Z,99105.91
2022-08-05T04:28:51.371Z,99105.53
2022-08-05T04:31:38.521Z,99100.53
2022-08-05T04:34:32.512Z,99099.03
2022-08-05T04:37:19.425Z,99099.78
2022-08-05T04:40:05.165Z,99104.44
2022-08-05T04:42:50.269Z,99097.19
2022-08-05T04:45:48.155Z,99102.63
2022-08-05T04:48:33.773Z,99093.69
2022-08-05T04:51:19.419Z,99104.50
2022-08-05T04:54:07.922Z,99100.63
2022-08-05T04:56:58.935Z,99098.41
2022-08-05T04:59:44.857Z,99099.00
2022-08-05T05:02:37.254Z,99100.88
2022-08-05T05:05:28.301Z,99101.19
2022-08-05T05:08:26.475Z,99101.06
2022-08-05T05:11:15.280Z,99096.53
2022-08-05T05:14:02.759Z,99089.84
2022-08-05T05:16:47.447Z,99086.94
2022-08-05T05:19:36.466Z,99080.88
2022-08-05T05:22:26.019Z,99087.19
2022-08-05T05:25:17.086Z,99083.16
2022-08-05T05:28:02.772Z,99083.44
2022-08-05T05:30:49.821Z,99088.25
2022-08-05T05:33:58.699Z,99082.31
2022-08-05T05:36:39.486Z,99081.78
2022-08-05T05:39:24.564Z,99083.91
2022-08-05T05:42:16.757Z,99085.63
2022-08-05T05:45:06.890Z,99085.19
2022-08-05T05:48:06.660Z,99077.19
2022-08-05T05:50:52.505Z,99085.41
2022-08-05T05:53:45.975Z,99083.53
2022-08-05T05:56:39.506Z,99085.03
2022-08-05T05:59:24.898Z,99086.94
2022-08-05T06:02:13.880Z,99079.34
2022-08-05T06:04:59.559Z,99080.25
2022-08-05T06:07:57.600Z,99077.22
2022-08-05T06:10:52.367Z,99084.59
2022-08-05T06:13:40.915Z,99077.03
2022-08-05T06:16:39.243Z,99079.94
2022-08-05T06:19:34.215Z,99083.16
2022-08-05T06:22:26.042Z,99081.16
2022-08-05T06:25:59.302Z,99087.31
2022-08-05T06:28:21.103Z,99076.06
2022-08-05T06:31:11.249Z,99079.03
2022-08-05T06:34:06.826Z,99074.44
2022-08-05T06:36:57.004Z,99072.69
2022-08-05T06:39:43.349Z,99086.22
2022-08-05T06:42:29.267Z,99087.00
2022-08-05T06:45:21.165Z,99087.94
2022-08-05T06:48:46.945Z,99088.41
2022-08-05T06:51:23.914Z,99081.13
2022-08-05T06:54:18.127Z,99085.72
2022-08-05T06:57:56.724Z,99081.09
2022-08-05T07:00:09.999Z,99076.81
2022-08-05T07:02:55.481Z,99077.06
2022-08-05T07:05:41.006Z,99080.19
2022-08-05T07:08:28.211Z,99077.47
2022-08-05T07:11:15.355Z,99073.16
2022-08-05T07:14:20.420Z,99080.22
2022-08-05T07:18:00.417Z,99075.31
2022-08-05T07:20:37.179Z,99073.81
2022-08-05T07:23:26.489Z,99070.78
2022-08-05T07:26:17.294Z,99072.63
2022-08-05T07:29:08.513Z,99069.31
2022-08-05T07:31:55.399Z,99073.97
2022-08-05T07:34:42.326Z,99070.28
2022-08-05T07:37:28.990Z,99071.97
2022-08-05T07:40:31.731Z,99073.31
2022-08-05T07:43:20.885Z,99069.50
2022-08-05T07:46:06.237Z,99072.25
2022-08-05T07:49:09.446Z,99071.56
2022-08-05T07:51:55.185Z,99066.22
2022-08-05T07:54:41.225Z,99071.19
2022-08-05T07:57:42.708Z,99065.75
2022-08-05T08:00:37.603Z,99061.91
2022-08-05T08:03:22.613Z,99061.75
2022-08-05T08:06:07.601Z,99058.66
2022-08-05T08:08:55.256Z,99074.00
2022-08-05T08:11:47.782Z,99059.09
2022-08-05T08:14:40.842Z,99051.53
2022-08-05T08:17:26.214Z,99053.47
2022-08-05T08:20:43.360Z,99054.72
2022-08-05T08:24:02.264Z,99054.94
2022-08-05T08:26:26.875Z,99056.75
2022-08-05T08:29:45.522Z,99053.47
2022-08-05T08:32:28.165Z,99049.84
2022-08-05T08:35:13.708Z,99048.72
2022-08-05T08:37:58.624Z,99049.38
2022-08-05T08:40:51.499Z,99043.63
2022-08-05T08:45:18.096Z,99058.09
2022-08-05T08:46:44.095Z,99049.50
2022-08-05T08:50:23.139Z,99045.44
2022-08-05T08:52:41.665Z,99048.44
2022-08-05T08:56:02.650Z,99051.09
2022-08-05T08:58:44.403Z,99053.81
2022-08-05T09:01:33.690Z,99045.63
2022-08-05T09:04:18.631Z,99034.81
2022-08-05T09:07:19.393Z,99038.81
2022-08-05T09:10:13.160Z,99037.03
2022-08-05T09:13:05.218Z,99038.38
2022-08-05T09:15:51.295Z,99041.09
2022-08-05T09:18:40.051Z,99041.06
2022-08-05T09:22:23.367Z,99041.84
2022-08-05T09:24:37.128Z,99038.44
2022-08-05T09:28:04.024Z,99039.56
2022-08-05T09:30:43.545Z,99024.56
2022-08-05T09:33:35.366Z,99026.63
2022-08-05T09:36:21.088Z,99030.44
2022-08-05T09:39:18.144Z,99021.47
2022-08-05T09:42:07.875Z,99033.56
2022-08-05T09:44:56.166Z,99034.25
2022-08-05T09:47:55.699Z,99026.50
2022-08-05T09:50:44.704Z,99030.00
2022-08-05T09:53:54.516Z,99036.16
2022-08-05T09:56:51.761Z,99036.06
2022-08-05T09:59:37.402Z,99017.78
2022-08-05T10:02:34.002Z,99032.78
2022-08-05T10:05:21.291Z,99036.09
2022-08-05T10:08:36.660Z,99033.00
2022-08-05T10:11:16.639Z,99039.72
2022-08-05T10:14:24.221Z,99039.88
2022-08-05T10:17:39.747Z,99037.97
2022-08-05T10:20:20.080Z,99046.22
2022-08-05T10:23:08.925Z,99030.47
2022-08-05T10:26:14.885Z,99036.47
2022-08-05T10:29:00.457Z,99035.53
2022-08-05T10:32:55.633Z,99036.03
2022-08-05T10:34:50.754Z,99038.63
2022-08-05T10:37:40.461Z,99033.69
2022-08-05T10:40:44.936Z,99024.00
2022-08-05T10:43:36.343Z,99022.28
2022-08-05T10:46:23.744Z,99028.34
2022-08-05T10:49:10.442Z,99032.59
2022-08-05T10:52:02.484Z,99033.84
2022-08-05T10:55:09.470Z,99021.00
2022-08-05T10:58:11.693Z,99020.38
2022-08-05T11:01:04.343Z,99027.75
2022-08-05T11:04:22.306Z,99021.53
2022-08-05T11:07:14.892Z,99034.50
2022-08-05T11:10:04.035Z,99022.66
2022-08-05T11:12:56.499Z,99018.31
2022-08-05T11:15:59.201Z,99019.31
2022-08-05T11:18:47.063Z,99026.50
2022-08-05T11:21:32.170Z,99030.41
2022-08-05T11:24:33.731Z,99028.13
2022-08-05T11:27:45.833Z,99025.69
2022-08-05T11:30:55.326Z,99019.69
2022-08-05T11:33:48.121Z,99024.00
2022-08-05T11:36:46.480Z,99018.00
2022-08-05T11:39:49.507Z,99029.16
2022-08-05T11:42:45.534Z,99024.38
2022-08-05T11:46:15.633Z,99031.97
2022-08-05T11:48:36.143Z,99032.59
2022-08-05T11:51:44.424Z,99038.88
2022-08-05T11:54:34.502Z,99036.63
2022-08-05T11:57:24.859Z,99038.31
2022-08-05T12:00:30.721Z,99043.88
2022-08-05T12:03:29.328Z,99040.53
2022-08-05T12:06:22.856Z,99036.88
2022-08-05T12:09:07.826Z,99035.88
2022-08-05T12:12:07.609Z,99037.78
2022-08-05T12:14:55.864Z,99038.72
2022-08-05T12:18:03.978Z,99031.03
2022-08-05T12:20:47.781Z,99036.72
2022-08-05T12:23:32.853Z,99039.31
2022-08-05T12:26:17.844Z,99035.56
2022-08-05T12:29:09.433Z,99035.81
2022-08-05T12:32:01.721Z,99037.25
2022-08-05T12:34:47.122Z,99033.78
2022-08-05T12:37:35.123Z,99025.88
2022-08-05T12:40:29.643Z,99028.16
2022-08-05T12:43:20.614Z,99046.66
2022-08-05T12:46:06.226Z,99038.56
2022-08-05T12:49:13.608Z,99033.16
2022-08-05T12:52:12.789Z,99026.63
2022-08-05T12:55:26.302Z,99031.97
2022-08-05T12:58:38.748Z,99031.22
2022-08-05T13:02:03.367Z,99036.88
2022-08-05T13:04:52.525Z,99037.75
2022-08-05T13:07:59.310Z,99039.13
2022-08-05T13:10:50.316Z,99032.25
2022-08-05T13:14:04.929Z,99035.50
2022-08-05T13:16:50.084Z,99033.53
2022-08-05T13:19:51.018Z,99035.94
2022-08-05T13:22:46.062Z,99037.69
2022-08-05T13:25:52.267Z,99029.31
2022-08-05T13:28:40.921Z,99028.66
2022-08-05T13:32:02.837Z,99039.06
2022-08-05T13:34:33.973Z,99029.13
2022-08-05T13:37:34.545Z,99028.94
2022-08-05T13:40:36.941Z,99032.44
2022-08-05T13:43:44.016Z,99031.00
2022-08-05T13:46:37.962Z,99037.78
2022-08-05T13:49:36.557Z,99036.06
2022-08-05T13:52:29.070Z,99036.31
2022-08-05T13:55:14.388Z,99029.72
2022-08-05T13:58:30.176Z,99029.97
2022-08-05T14:01:16.433Z,99022.56
2022-08-05T14:04:19.782Z,99018.16
2022-08-05T14:07:24.932Z,99022.34
2022-08-05T14:10:19.036Z,99019.09
2022-08-05T14:13:13.203Z,99013.53
2022-08-05T14:16:07.597Z,99012.16
2022-08-05T14:18:55.998Z,99007.38
2022-08-05T14:22:09.558Z,99016.28
2022-08-05T14:24:46.711Z,99012.09
2022-08-05T14:27:32.616Z,99012.19
2022-08-05T14:30:20.407Z,98998.22
2022-08-05T14:33:09.014Z,98996.28
2022-08-05T14:36:02.172Z,98994.19
2022-08-05T14:38:46.922Z,98996.09
2022-08-05T14:41:32.570Z,98997.06
2022-08-05T14:44:20.563Z,98987.88
2022-08-05T14:47:07.000Z,98994.69
2022-08-05T14:49:59.569Z,98992.59
2022-08-05T14:52:57.773Z,98995.06
2022-08-05T14:55:44.125Z,98987.28
2022-08-05T14:58:37.116Z,98978.81
2022-08-05T15:01:47.201Z,98972.44
2022-08-05T15:04:29.127Z,98977.81
2022-08-05T15:08:10.836Z,98978.59
2022-08-05T15:10:19.315Z,98967.66
2022-08-05T15:13:13.853Z,98974.75
2022-08-05T15:15:59.311Z,98974.03
2022-08-05T15:18:43.956Z,98983.78
2022-08-05T15:21:32.422Z,98977.31
2022-08-05T15:24:20.476Z,98976.16
2022-08-05T15:27:09.099Z,98970.88
2022-08-05T15:29:56.829Z,98969.91
2022-08-05T15:32:41.962Z,98971.41
2022-08-05T15:35:27.534Z,98981.91
2022-08-05T15:38:35.329Z,98975.81
2022-08-05T15:41:24.477Z,98977.59
2022-08-05T15:44:09.884Z,98982.06
2022-08-05T15:46:55.662Z,98986.75
2022-08-05T15:49:56.778Z,98993.41
2022-08-05T15:52:52.963Z,98989.56
2022-08-05T15:56:01.832Z,98985.66
2022-08-05T15:58:48.587Z,98993.28
2022-08-05T16:01:39.739Z,98998.19
2022-08-05T16:04:36.852Z,99000.41
2022-08-05T16:07:24.240Z,98993.16
2022-08-05T16:10:14.262Z,98990.88
2022-08-05T16:12:59.932Z,98985.53
2022-08-05T16:15:44.805Z,98985.19
2022-08-05T16:18:32.538Z,98987.84
2022-08-05T16:21:17.290Z,98981.81
2022-08-05T16:24:03.737Z,98977.22
2022-08-05T16:26:51.264Z,98982.03
2022-08-05T16:29:37.974Z,98973.28
2022-08-05T16:32:28.332Z,98970.00
2022-08-05T16:35:14.081Z,98974.41
2022-08-05T16:38:16.455Z,98973.91
2022-08-05T16:42:12.373Z,98971.72
2022-08-05T16:44:14.034Z,98977.13
2022-08-05T16:46:59.335Z,98979.50
2022-08-05T16:49:44.178Z,98982.25
2022-08-05T16:52:32.625Z,98984.56
2022-08-05T16:55:18.470Z,98987.66
2022-08-05T16:58:08.706Z,98989.53
2022-08-05T17:00:53.743Z,98994.41
2022-08-05T17:03:40.274Z,98993.84
2022-08-05T17:06:25.667Z,98994.44
2022-08-05T17:09:10.553Z,98988.41
2022-08-05T17:11:59.732Z,98991.34
2022-08-05T17:14:44.898Z,98995.38
2022-08-05T17:17:42.674Z,98998.44
2022-08-05T17:20:28.464Z,99009.16
2022-08-05T17:24:03.726Z,99010.28
2022-08-05T17:26:18.544Z,99009.72
2022-08-05T17:29:07.483Z,99009.13
2022-08-05T17:31:59.031Z,99017.41
2022-08-05T17:34:49.246Z,99015.72
2022-08-05T17:37:41.450Z,99022.88
2022-08-05T17:40:30.356Z,99020.22
2022-08-05T17:43:16.311Z,99032.97
2022-08-05T17:46:02.994Z,99033.25
2022-08-05T17:48:49.377Z,99039.25
2022-08-05T17:51:40.584Z,99034.41
2022-08-05T17:54:25.816Z,99035.22
2022-08-05T17:57:12.183Z,99042.53
2022-08-05T18:00:05.086Z,99046.78
2022-08-05T18:02:50.699Z,99047.28
2022-08-05T18:05:36.243Z,99046.22
2022-08-05T18:08:21.261Z,99042.69
2022-08-05T18:11:06.380Z,99042.19
2022-08-05T18:13:52.018Z,99044.38
2022-08-05T18:16:47.038Z,99045.75
2022-08-05T18:19:36.825Z,99047.44
2022-08-05T18:22:36.493Z,99047.75
2022-08-05T18:25:34.257Z,99052.53
2022-08-05T18:28:21.823Z,99051.72
2022-08-05T18:31:07.439Z,99043.53
2022-08-05T18:33:54.339Z,99056.44
2022-08-05T18:36:43.642Z,99051.06
2022-08-05T18:40:30.993Z,99051.34
2022-08-05T18:42:33.349Z,99054.09
2022-08-05T18:45:18.512Z,99052.41
2022-08-05T18:48:05.367Z,99057.47
2022-08-05T18:52:06.204Z,99063.97
2022-08-05T18:54:20.300Z,99061.28
2022-08-05T18:57:06.159Z,99060.34
2022-08-05T19:00:02.156Z,99073.44
2022-08-05T19:02:51.130Z,99064.19
2022-08-05T19:06:12.266Z,99072.06
2022-08-05T19:08:41.948Z,99069.44
2022-08-05T19:11:28.417Z,99063.56
2022-08-05T19:14:44.923Z,99059.41
2022-08-05T19:17:33.770Z,99056.13
2022-08-05T19:20:32.561Z,99065.06
2022-08-05T19:24:03.726Z,99059.50
2022-08-05T19:26:23.453Z,99067.50
2022-08-05T19:29:10.601Z,99059.75
2022-08-05T19:31:56.109Z,99064.22
2022-08-05T19:34:54.319Z,99058.78
2022-08-05T19:38:04.729Z,99049.41
2022-08-05T19:40:46.716Z,99055.41
2022-08-05T19:44:05.912Z,99056.16
2022-08-05T19:46:39.441Z,99046.91
2022-08-05T19:49:24.439Z,99046.50
2022-08-05T19:52:30.611Z,99040.63
2022-08-05T19:56:15.133Z,99050.47
2022-08-05T19:58:29.309Z,99047.47
2022-08-05T20:01:14.954Z,99044.19
2022-08-05T20:04:01.273Z,99034.94
2022-08-05T20:06:48.183Z,99031.66
2022-08-05T20:09:55.062Z,99033.31
2022-08-05T20:12:38.295Z,99027.44
2022-08-05T20:15:50.804Z,99034.63
2022-08-05T20:18:36.718Z,99037.94
2022-08-05T20:21:22.321Z,99039.91
2022-08-05T20:24:07.423Z,99041.84
2022-08-05T20:26:56.374Z,99035.94
2022-08-05T20:29:41.729Z,99034.47
2022-08-05T20:32:37.498Z,99038.19
2022-08-05T20:35:31.451Z,99030.59
2022-08-05T20:38:22.603Z,99024.13
2022-08-05T20:41:11.860Z,99015.31
2022-08-05T20:44:17.195Z,99025.59
2022-08-05T20:47:07.403Z,99018.44
2022-08-05T20:49:52.507Z,99018.25
2022-08-05T20:52:38.599Z,99019.13
2022-08-05T20:55:56.310Z,99017.13
2022-08-05T20:58:31.439Z,99022.16
2022-08-05T21:01:16.786Z,99024.28
2022-08-05T21:04:01.623Z,99014.09
2022-08-05T21:06:46.687Z,99019.44
2022-08-05T21:09:31.467Z,99017.41
2022-08-05T21:12:19.286Z,99010.91
2022-08-05T21:15:04.800Z,99009.66
2022-08-05T21:17:52.309Z,99011.78
2022-08-05T21:20:37.548Z,99006.66
2022-08-05T21:23:24.824Z,99018.97
2022-08-05T21:26:14.334Z,99018.75
2022-08-05T21:29:03.871Z,99013.16
2022-08-05T21:31:50.282Z,99010.06
2022-08-05T21:34:36.268Z,99018.38
2022-08-05T21:37:21.036Z,99017.44
2022-08-05T21:40:06.661Z,99016.66
2022-08-05T21:42:59.218Z,99025.28
2022-08-05T21:45:56.500Z,99028.47
2022-08-05T21:48:42.550Z,99023.56
2022-08-05T21:52:21.457Z,99027.78
2022-08-05T21:54:33.058Z,99023.38
2022-08-05T21:57:34.038Z,99028.88
2022-08-05T22:00:19.424Z,99025.50
2022-08-05T22:03:04.262Z,99025.31
2022-08-05T22:05:49.414Z,99030.63
2022-08-05T22:08:34.378Z,99027.53
2022-08-05T22:11:34.407Z,99027.03
2022-08-05T22:14:35.707Z,99022.09
2022-08-05T22:17:23.512Z,99028.19
2022-08-05T22:20:14.690Z,99021.22
2022-08-05T22:23:21.299Z,99021.28
2022-08-05T22:26:24.864Z,99026.34
2022-08-05T22:29:09.664Z,99025.34
2022-08-05T22:31:55.371Z,99027.69
2022-08-05T22:34:47.884Z,99025.63
2022-08-05T22:37:58.515Z,99018.66
2022-08-05T22:40:38.406Z,99027.63
2022-08-05T22:43:36.839Z,99017.28
2022-08-05T22:46:23.252Z,99019.69
2022-08-05T22:50:17.673Z,99013.75
2022-08-05T22:52:30.549Z,99012.56
2022-08-05T22:58:28.477Z,99012.09
2022-08-05T23:01:13.795Z,99003.00
2022-08-05T23:03:59.731Z,99006.09
2022-08-05T23:06:44.808Z,99005.31
2022-08-05T23:09:57.758Z,99013.13
2022-08-05T23:12:37.591Z,99015.56
2022-08-05T23:15:29.344Z,99012.25
2022-08-05T23:18:16.121Z,99010.44
2022-08-05T23:21:01.287Z,99015.94
2022-08-05T23:23:48.187Z,99012.84
2022-08-05T23:26:33.235Z,99011.38
2022-08-05T23:29:18.188Z,99011.44
2022-08-05T23:32:05.028Z,99011.50
2022-08-05T23:34:50.884Z,99001.63
2022-08-05T23:37:36.539Z,99005.81
2022-08-05T23:40:27.268Z,99009.47
2022-08-05T23:43:24.950Z,99009.75
2022-08-05T23:46:21.010Z,99005.38
2022-08-05T23:49:16.217Z,99009.13
2022-08-05T23:52:20.664Z,99006.06
2022-08-05T23:55:09.072Z,99015.53
2022-08-05T23:57:53.906Z,99013.69
